KDFI/DFI METAR and TAF weather

Enter ICAO airport designator
Station Type Date Time Source
KDFI METAR 2022/06/27 06:53 UTC NOAA

KDFI 270653Z AUTO 29004KT 10SM CLR 17/12 A3010 RMK AO2 SLP190 T01720117 TSNO


Station Type Date Time Source
KDFI Decoded METAR 2022/06/27 06:53 UTC NOAA

DEFIANCE MEMORIAL AIRPORT, OH, United States (KDFI) 41-20N 84-26W 219M
Jun 27, 2022 - 02:53 AM EDT / 2022.06.27 0653 UTC
Wind: from the WNW (290 degrees) at 5 MPH (4 KT):0
Visibility: 10 mile(s):0
Sky conditions: clear
Temperature: 63.0 F (17.2 C)
Dew Point: 53.1 F (11.7 C)
Relative Humidity: 70%
Pressure (altimeter): 30.1 in. Hg (1019 hPa)
ob: KDFI 270653Z AUTO 29004KT 10SM CLR 17/12 A3010 RMK AO2 SLP190 T01720117 TSNO
cycle: 7

Station Type Date Time Source
KDFI TAF UTC NOAA

Error!

Example: see airport list